sensor_id;sensor_type;location;lat;lon;timestamp;temperature;humidity
11304;DHT22;5707;49.588;12.148;2022-07-21T00:02:34;22.30;99.90
11304;DHT22;5707;49.588;12.148;2022-07-21T00:05:14;22.20;99.90
11304;DHT22;5707;49.588;12.148;2022-07-21T00:07:54;22.00;99.90
11304;DHT22;5707;49.588;12.148;2022-07-21T00:10:33;21.90;99.90
11304;DHT22;5707;49.588;12.148;2022-07-21T00:13:13;21.70;99.90
11304;DHT22;5707;49.588;12.148;2022-07-21T00:15:53;21.60;99.90
11304;DHT22;5707;49.588;12.148;2022-07-21T00:18:33;21.60;99.90
11304;DHT22;5707;49.588;12.148;2022-07-21T00:21:13;21.50;99.90
11304;DHT22;5707;49.588;12.148;2022-07-21T00:23:52;21.50;99.90
11304;DHT22;5707;49.588;12.148;2022-07-21T00:26:32;21.50;99.90
11304;DHT22;5707;49.588;12.148;2022-07-21T00:29:12;21.60;99.90
11304;DHT22;5707;49.588;12.148;2022-07-21T00:31:52;21.70;99.90
11304;DHT22;5707;49.588;12.148;2022-07-21T00:34:32;21.80;99.90
11304;DHT22;5707;49.588;12.148;2022-07-21T00:37:12;21.90;99.90
11304;DHT22;5707;49.588;12.148;2022-07-21T00:39:51;22.00;99.90
11304;DHT22;5707;49.588;12.148;2022-07-21T00:42:31;22.20;99.90
11304;DHT22;5707;49.588;12.148;2022-07-21T00:45:11;22.20;99.90
11304;DHT22;5707;49.588;12.148;2022-07-21T00:47:53;22.40;99.90
11304;DHT22;5707;49.588;12.148;2022-07-21T00:50:34;22.40;99.90
11304;DHT22;5707;49.588;12.148;2022-07-21T00:53:14;22.30;99.90
11304;DHT22;5707;49.588;12.148;2022-07-21T00:55:54;22.20;99.90
11304;DHT22;5707;49.588;12.148;2022-07-21T00:58:33;22.00;99.90
11304;DHT22;5707;49.588;12.148;2022-07-21T01:01:15;21.80;99.90
11304;DHT22;5707;49.588;12.148;2022-07-21T01:03:55;21.60;99.90
11304;DHT22;5707;49.588;12.148;2022-07-21T01:06:35;21.60;99.90
11304;DHT22;5707;49.588;12.148;2022-07-21T01:09:14;21.50;99.90
11304;DHT22;5707;49.588;12.148;2022-07-21T01:11:54;21.30;99.90
11304;DHT22;5707;49.588;12.148;2022-07-21T01:14:34;21.20;99.90
11304;DHT22;5707;49.588;12.148;2022-07-21T01:17:14;21.20;99.90
11304;DHT22;5707;49.588;12.148;2022-07-21T01:19:54;21.10;99.90
11304;DHT22;5707;49.588;12.148;2022-07-21T01:22:34;21.00;99.90
11304;DHT22;5707;49.588;12.148;2022-07-21T01:25:15;21.00;99.90
11304;DHT22;5707;49.588;12.148;2022-07-21T01:27:57;21.00;99.90
11304;DHT22;5707;49.588;12.148;2022-07-21T01:30:36;21.00;99.90
11304;DHT22;5707;49.588;12.148;2022-07-21T01:33:16;20.90;99.90
11304;DHT22;5707;49.588;12.148;2022-07-21T01:35:56;20.90;99.90
11304;DHT22;5707;49.588;12.148;2022-07-21T01:38:36;20.90;99.90
11304;DHT22;5707;49.588;12.148;2022-07-21T01:41:33;21.00;99.90
11304;DHT22;5707;49.588;12.148;2022-07-21T01:44:13;21.00;99.90
11304;DHT22;5707;49.588;12.148;2022-07-21T01:46:53;21.10;99.90
11304;DHT22;5707;49.588;12.148;2022-07-21T01:49:33;21.10;99.90
11304;DHT22;5707;49.588;12.148;2022-07-21T01:52:12;21.10;99.90
11304;DHT22;5707;49.588;12.148;2022-07-21T01:54:52;21.10;99.90
11304;DHT22;5707;49.588;12.148;2022-07-21T01:57:32;21.00;99.90
11304;DHT22;5707;49.588;12.148;2022-07-21T02:00:12;21.00;99.90
11304;DHT22;5707;49.588;12.148;2022-07-21T02:02:52;21.00;99.90
11304;DHT22;5707;49.588;12.148;2022-07-21T02:05:35;21.10;99.90
11304;DHT22;5707;49.588;12.148;2022-07-21T02:08:15;21.10;99.90
11304;DHT22;5707;49.588;12.148;2022-07-21T02:10:57;21.20;99.90
11304;DHT22;5707;49.588;12.148;2022-07-21T02:13:37;21.20;99.90
11304;DHT22;5707;49.588;12.148;2022-07-21T02:16:17;21.20;99.90
11304;DHT22;5707;49.588;12.148;2022-07-21T02:18:57;21.20;99.90
11304;DHT22;5707;49.588;12.148;2022-07-21T02:21:37;21.20;99.90
11304;DHT22;5707;49.588;12.148;2022-07-21T02:24:17;21.20;99.90
11304;DHT22;5707;49.588;12.148;2022-07-21T02:26:57;21.10;99.90
11304;DHT22;5707;49.588;12.148;2022-07-21T02:29:36;21.00;99.90
11304;DHT22;5707;49.588;12.148;2022-07-21T02:32:16;20.80;99.90
11304;DHT22;5707;49.588;12.148;2022-07-21T02:34:56;20.70;99.90
11304;DHT22;5707;49.588;12.148;2022-07-21T02:37:36;20.70;99.90
11304;DHT22;5707;49.588;12.148;2022-07-21T02:40:16;20.60;99.90
11304;DHT22;5707;49.588;12.148;2022-07-21T02:42:56;20.50;99.90
11304;DHT22;5707;49.588;12.148;2022-07-21T02:45:35;20.50;99.90
11304;DHT22;5707;49.588;12.148;2022-07-21T02:48:17;20.50;99.90
11304;DHT22;5707;49.588;12.148;2022-07-21T02:50:58;20.50;99.90
11304;DHT22;5707;49.588;12.148;2022-07-21T02:53:38;20.60;99.90
11304;DHT22;5707;49.588;12.148;2022-07-21T02:56:18;20.70;99.90
11304;DHT22;5707;49.588;12.148;2022-07-21T02:58:58;20.70;99.90
11304;DHT22;5707;49.588;12.148;2022-07-21T03:01:38;20.60;99.90
11304;DHT22;5707;49.588;12.148;2022-07-21T03:04:17;20.60;99.90
11304;DHT22;5707;49.588;12.148;2022-07-21T03:06:57;20.50;99.90
11304;DHT22;5707;49.588;12.148;2022-07-21T03:09:37;20.40;99.90
11304;DHT22;5707;49.588;12.148;2022-07-21T03:12:17;20.30;99.90
11304;DHT22;5707;49.588;12.148;2022-07-21T03:14:57;20.20;99.90
11304;DHT22;5707;49.588;12.148;2022-07-21T03:17:37;20.10;99.90
11304;DHT22;5707;49.588;12.148;2022-07-21T03:20:16;20.00;99.90
11304;DHT22;5707;49.588;12.148;2022-07-21T03:22:56;20.00;99.90
11304;DHT22;5707;49.588;12.148;2022-07-21T03:25:36;19.90;99.90
11304;DHT22;5707;49.588;12.148;2022-07-21T03:28:16;19.90;99.90
11304;DHT22;5707;49.588;12.148;2022-07-21T03:30:57;19.90;99.90
11304;DHT22;5707;49.588;12.148;2022-07-21T03:33:37;20.00;99.90
11304;DHT22;5707;49.588;12.148;2022-07-21T03:36:17;20.00;99.90
11304;DHT22;5707;49.588;12.148;2022-07-21T03:38:57;20.00;99.90
11304;DHT22;5707;49.588;12.148;2022-07-21T03:41:37;20.10;99.90
11304;DHT22;5707;49.588;12.148;2022-07-21T03:44:16;20.10;99.90
11304;DHT22;5707;49.588;12.148;2022-07-21T03:46:56;20.20;99.90
11304;DHT22;5707;49.588;12.148;2022-07-21T03:49:38;20.30;99.90
11304;DHT22;5707;49.588;12.148;2022-07-21T03:52:17;20.30;99.90
11304;DHT22;5707;49.588;12.148;2022-07-21T03:54:57;20.40;99.90
11304;DHT22;5707;49.588;12.148;2022-07-21T03:57:47;20.40;99.90
11304;DHT22;5707;49.588;12.148;2022-07-21T04:00:29;20.50;99.90
11304;DHT22;5707;49.588;12.148;2022-07-21T04:03:10;20.70;99.90
11304;DHT22;5707;49.588;12.148;2022-07-21T04:05:51;20.80;99.90
11304;DHT22;5707;49.588;12.148;2022-07-21T04:08:31;20.90;99.90
11304;DHT22;5707;49.588;12.148;2022-07-21T04:11:11;21.10;99.90
11304;DHT22;5707;49.588;12.148;2022-07-21T04:13:50;21.20;99.90
11304;DHT22;5707;49.588;12.148;2022-07-21T04:16:30;21.30;99.90
11304;DHT22;5707;49.588;12.148;2022-07-21T04:19:10;21.40;99.90
11304;DHT22;5707;49.588;12.148;2022-07-21T04:21:50;21.40;99.90
11304;DHT22;5707;49.588;12.148;2022-07-21T04:24:30;21.50;99.90
11304;DHT22;5707;49.588;12.148;2022-07-21T04:27:10;21.50;99.90
11304;DHT22;5707;49.588;12.148;2022-07-21T04:29:49;21.50;99.90
11304;DHT22;5707;49.588;12.148;2022-07-21T04:32:29;21.50;99.90
11304;DHT22;5707;49.588;12.148;2022-07-21T04:35:09;21.50;99.90
11304;DHT22;5707;49.588;12.148;2022-07-21T04:37:49;21.40;99.90
11304;DHT22;5707;49.588;12.148;2022-07-21T04:40:30;21.50;99.90
11304;DHT22;5707;49.588;12.148;2022-07-21T04:43:10;21.50;99.90
11304;DHT22;5707;49.588;12.148;2022-07-21T04:45:50;21.60;99.90
11304;DHT22;5707;49.588;12.148;2022-07-21T04:48:30;21.70;99.90
11304;DHT22;5707;49.588;12.148;2022-07-21T04:51:10;21.90;99.90
11304;DHT22;5707;49.588;12.148;2022-07-21T04:53:50;22.10;99.90
11304;DHT22;5707;49.588;12.148;2022-07-21T04:56:29;22.30;99.90
11304;DHT22;5707;49.588;12.148;2022-07-21T04:59:11;22.40;99.90
11304;DHT22;5707;49.588;12.148;2022-07-21T05:01:51;22.40;99.90
11304;DHT22;5707;49.588;12.148;2022-07-21T05:04:31;22.40;99.90
11304;DHT22;5707;49.588;12.148;2022-07-21T05:07:10;22.50;99.90
11304;DHT22;5707;49.588;12.148;2022-07-21T05:09:50;22.50;99.90
11304;DHT22;5707;49.588;12.148;2022-07-21T05:12:30;23.00;99.90
11304;DHT22;5707;49.588;12.148;2022-07-21T05:15:10;23.40;99.90
11304;DHT22;5707;49.588;12.148;2022-07-21T05:17:51;23.60;99.90
11304;DHT22;5707;49.588;12.148;2022-07-21T05:20:31;23.80;99.90
11304;DHT22;5707;49.588;12.148;2022-07-21T05:23:11;24.00;99.90
11304;DHT22;5707;49.588;12.148;2022-07-21T05:25:51;24.40;99.90
11304;DHT22;5707;49.588;12.148;2022-07-21T05:28:31;24.80;99.90
11304;DHT22;5707;49.588;12.148;2022-07-21T05:31:10;25.40;99.90
11304;DHT22;5707;49.588;12.148;2022-07-21T05:33:50;25.80;99.90
11304;DHT22;5707;49.588;12.148;2022-07-21T05:36:30;26.10;99.90
11304;DHT22;5707;49.588;12.148;2022-07-21T05:39:10;26.00;99.90
11304;DHT22;5707;49.588;12.148;2022-07-21T05:41:50;25.70;99.90
11304;DHT22;5707;49.588;12.148;2022-07-21T05:44:30;25.40;99.90
11304;DHT22;5707;49.588;12.148;2022-07-21T05:47:09;25.10;99.90
11304;DHT22;5707;49.588;12.148;2022-07-21T05:49:49;24.80;99.90
11304;DHT22;5707;49.588;12.148;2022-07-21T05:52:29;24.60;99.90
11304;DHT22;5707;49.588;12.148;2022-07-21T05:55:09;24.40;99.90
11304;DHT22;5707;49.588;12.148;2022-07-21T05:57:49;24.50;99.90
11304;DHT22;5707;49.588;12.148;2022-07-21T06:00:28;24.60;99.90
11304;DHT22;5707;49.588;12.148;2022-07-21T06:03:08;24.60;99.90
11304;DHT22;5707;49.588;12.148;2022-07-21T06:05:50;24.70;99.90
11304;DHT22;5707;49.588;12.148;2022-07-21T06:08:30;24.60;99.90
11304;DHT22;5707;49.588;12.148;2022-07-21T06:11:10;24.50;99.90
11304;DHT22;5707;49.588;12.148;2022-07-21T06:13:51;24.30;99.90
11304;DHT22;5707;49.588;12.148;2022-07-21T06:16:31;24.10;99.90
11304;DHT22;5707;49.588;12.148;2022-07-21T06:19:10;24.10;99.90
11304;DHT22;5707;49.588;12.148;2022-07-21T06:21:50;24.00;99.90
11304;DHT22;5707;49.588;12.148;2022-07-21T06:24:30;23.90;99.90
11304;DHT22;5707;49.588;12.148;2022-07-21T06:27:10;23.70;99.90
11304;DHT22;5707;49.588;12.148;2022-07-21T06:29:50;23.40;99.90
11304;DHT22;5707;49.588;12.148;2022-07-21T06:32:30;23.10;99.90
11304;DHT22;5707;49.588;12.148;2022-07-21T06:35:10;23.00;99.90
11304;DHT22;5707;49.588;12.148;2022-07-21T06:37:49;23.00;99.90
11304;DHT22;5707;49.588;12.148;2022-07-21T06:40:29;23.00;99.90
11304;DHT22;5707;49.588;12.148;2022-07-21T06:43:11;22.80;99.90
11304;DHT22;5707;49.588;12.148;2022-07-21T06:45:50;22.80;99.90
11304;DHT22;5707;49.588;12.148;2022-07-21T06:48:30;22.70;99.90
11304;DHT22;5707;49.588;12.148;2022-07-21T06:51:10;22.70;99.90
11304;DHT22;5707;49.588;12.148;2022-07-21T06:53:50;22.50;99.90
11304;DHT22;5707;49.588;12.148;2022-07-21T06:56:30;22.20;99.90
11304;DHT22;5707;49.588;12.148;2022-07-21T06:59:09;22.00;99.90
11304;DHT22;5707;49.588;12.148;2022-07-21T07:01:49;21.80;99.90
11304;DHT22;5707;49.588;12.148;2022-07-21T07:04:29;21.50;99.90
11304;DHT22;5707;49.588;12.148;2022-07-21T07:07:09;21.40;99.90
11304;DHT22;5707;49.588;12.148;2022-07-21T07:09:49;21.10;99.90
11304;DHT22;5707;49.588;12.148;2022-07-21T07:12:29;20.90;99.90
11304;DHT22;5707;49.588;12.148;2022-07-21T07:15:09;20.70;99.90
11304;DHT22;5707;49.588;12.148;2022-07-21T07:17:50;20.50;99.90
11304;DHT22;5707;49.588;12.148;2022-07-21T07:20:30;20.40;99.90
11304;DHT22;5707;49.588;12.148;2022-07-21T07:23:10;20.40;99.90
11304;DHT22;5707;49.588;12.148;2022-07-21T07:25:49;20.40;99.90
11304;DHT22;5707;49.588;12.148;2022-07-21T07:28:29;20.40;99.90
11304;DHT22;5707;49.588;12.148;2022-07-21T07:31:09;20.50;99.90
11304;DHT22;5707;49.588;12.148;2022-07-21T07:33:49;20.70;99.90
11304;DHT22;5707;49.588;12.148;2022-07-21T07:36:29;20.90;99.90
11304;DHT22;5707;49.588;12.148;2022-07-21T07:39:08;21.10;99.90
11304;DHT22;5707;49.588;12.148;2022-07-21T07:41:48;21.30;99.90
11304;DHT22;5707;49.588;12.148;2022-07-21T07:44:28;21.50;99.90
11304;DHT22;5707;49.588;12.148;2022-07-21T07:47:08;21.60;99.90
11304;DHT22;5707;49.588;12.148;2022-07-21T07:49:48;21.70;99.90
11304;DHT22;5707;49.588;12.148;2022-07-21T07:52:29;21.60;99.90
11304;DHT22;5707;49.588;12.148;2022-07-21T07:55:10;21.50;99.90
11304;DHT22;5707;49.588;12.148;2022-07-21T07:57:51;21.30;99.90
11304;DHT22;5707;49.588;12.148;2022-07-21T08:00:30;21.20;99.90
11304;DHT22;5707;49.588;12.148;2022-07-21T08:03:10;21.20;99.90
11304;DHT22;5707;49.588;12.148;2022-07-21T08:05:50;21.20;99.90
11304;DHT22;5707;49.588;12.148;2022-07-21T08:08:30;21.10;99.90
11304;DHT22;5707;49.588;12.148;2022-07-21T08:11:10;21.10;99.90
11304;DHT22;5707;49.588;12.148;2022-07-21T08:13:51;21.10;99.90
11304;DHT22;5707;49.588;12.148;2022-07-21T08:16:31;21.20;99.90
11304;DHT22;5707;49.588;12.148;2022-07-21T08:19:11;21.30;99.90
11304;DHT22;5707;49.588;12.148;2022-07-21T08:21:51;21.40;99.90
11304;DHT22;5707;49.588;12.148;2022-07-21T08:24:30;21.50;99.90
11304;DHT22;5707;49.588;12.148;2022-07-21T08:27:10;21.80;99.90
11304;DHT22;5707;49.588;12.148;2022-07-21T08:29:50;22.20;99.90
11304;DHT22;5707;49.588;12.148;2022-07-21T08:32:32;22.60;99.90
11304;DHT22;5707;49.588;12.148;2022-07-21T08:35:11;23.00;99.90
11304;DHT22;5707;49.588;12.148;2022-07-21T08:37:54;23.00;99.90
11304;DHT22;5707;49.588;12.148;2022-07-21T08:40:36;22.80;99.90
11304;DHT22;5707;49.588;12.148;2022-07-21T08:43:16;22.70;99.90
11304;DHT22;5707;49.588;12.148;2022-07-21T08:45:56;22.80;99.90
11304;DHT22;5707;49.588;12.148;2022-07-21T08:48:35;22.90;99.90
11304;DHT22;5707;49.588;12.148;2022-07-21T08:51:15;22.90;99.90
11304;DHT22;5707;49.588;12.148;2022-07-21T08:53:55;22.90;99.90
11304;DHT22;5707;49.588;12.148;2022-07-21T08:56:35;22.80;99.90
11304;DHT22;5707;49.588;12.148;2022-07-21T08:59:15;22.80;99.90
11304;DHT22;5707;49.588;12.148;2022-07-21T09:01:54;22.80;99.90
11304;DHT22;5707;49.588;12.148;2022-07-21T09:04:34;22.90;99.90
11304;DHT22;5707;49.588;12.148;2022-07-21T09:07:14;23.10;99.90
11304;DHT22;5707;49.588;12.148;2022-07-21T09:09:57;23.20;99.90
11304;DHT22;5707;49.588;12.148;2022-07-21T09:12:47;23.20;99.90
11304;DHT22;5707;49.588;12.148;2022-07-21T09:15:28;23.40;99.90
11304;DHT22;5707;49.588;12.148;2022-07-21T09:18:11;23.50;99.90
11304;DHT22;5707;49.588;12.148;2022-07-21T09:20:51;23.70;99.90
11304;DHT22;5707;49.588;12.148;2022-07-21T09:23:32;23.80;99.90
11304;DHT22;5707;49.588;12.148;2022-07-21T09:26:12;24.00;99.90
11304;DHT22;5707;49.588;12.148;2022-07-21T09:28:52;24.10;99.90
11304;DHT22;5707;49.588;12.148;2022-07-21T09:31:32;24.00;99.90
11304;DHT22;5707;49.588;12.148;2022-07-21T09:34:13;23.70;99.90
11304;DHT22;5707;49.588;12.148;2022-07-21T09:36:56;23.50;99.90
11304;DHT22;5707;49.588;12.148;2022-07-21T09:39:43;23.30;99.90
11304;DHT22;5707;49.588;12.148;2022-07-21T09:42:23;23.40;99.90
11304;DHT22;5707;49.588;12.148;2022-07-21T09:45:05;23.40;99.90
11304;DHT22;5707;49.588;12.148;2022-07-21T09:47:46;23.50;99.90
11304;DHT22;5707;49.588;12.148;2022-07-21T09:50:27;23.40;99.90
11304;DHT22;5707;49.588;12.148;2022-07-21T09:53:06;23.30;99.90
11304;DHT22;5707;49.588;12.148;2022-07-21T09:55:46;23.20;99.90
11304;DHT22;5707;49.588;12.148;2022-07-21T09:58:26;23.40;99.90
11304;DHT22;5707;49.588;12.148;2022-07-21T10:01:06;23.40;99.90
11304;DHT22;5707;49.588;12.148;2022-07-21T10:03:46;23.50;99.90
11304;DHT22;5707;49.588;12.148;2022-07-21T10:06:28;23.70;99.90
11304;DHT22;5707;49.588;12.148;2022-07-21T10:09:09;23.60;99.90
11304;DHT22;5707;49.588;12.148;2022-07-21T10:11:48;23.60;99.90
11304;DHT22;5707;49.588;12.148;2022-07-21T10:14:28;23.70;99.90
11304;DHT22;5707;49.588;12.148;2022-07-21T10:17:08;23.60;99.90
11304;DHT22;5707;49.588;12.148;2022-07-21T10:19:53;23.50;99.90
11304;DHT22;5707;49.588;12.148;2022-07-21T10:22:44;23.30;99.90
11304;DHT22;5707;49.588;12.148;2022-07-21T10:25:28;23.20;99.90
11304;DHT22;5707;49.588;12.148;2022-07-21T10:28:16;23.30;99.90
11304;DHT22;5707;49.588;12.148;2022-07-21T10:30:58;23.40;99.90
11304;DHT22;5707;49.588;12.148;2022-07-21T10:33:58;23.60;99.90
11304;DHT22;5707;49.588;12.148;2022-07-21T10:36:42;23.80;99.90
11304;DHT22;5707;49.588;12.148;2022-07-21T10:39:25;23.90;99.90
11304;DHT22;5707;49.588;12.148;2022-07-21T10:42:14;23.90;99.90
11304;DHT22;5707;49.588;12.148;2022-07-21T10:44:55;23.90;99.90
11304;DHT22;5707;49.588;12.148;2022-07-21T10:47:35;23.70;99.90
11304;DHT22;5707;49.588;12.148;2022-07-21T10:50:17;23.80;99.90
11304;DHT22;5707;49.588;12.148;2022-07-21T10:53:13;24.00;99.90
11304;DHT22;5707;49.588;12.148;2022-07-21T10:55:54;24.00;99.90
11304;DHT22;5707;49.588;12.148;2022-07-21T10:58:36;24.10;99.90
11304;DHT22;5707;49.588;12.148;2022-07-21T11:01:20;24.50;99.90
11304;DHT22;5707;49.588;12.148;2022-07-21T11:04:09;25.20;99.90
11304;DHT22;5707;49.588;12.148;2022-07-21T11:06:50;25.80;99.90
11304;DHT22;5707;49.588;12.148;2022-07-21T11:09:30;26.20;99.90
11304;DHT22;5707;49.588;12.148;2022-07-21T11:12:10;26.30;99.90
11304;DHT22;5707;49.588;12.148;2022-07-21T11:14:50;26.50;99.90
11304;DHT22;5707;49.588;12.148;2022-07-21T11:17:30;26.40;99.90
11304;DHT22;5707;49.588;12.148;2022-07-21T11:20:13;26.10;99.90
11304;DHT22;5707;49.588;12.148;2022-07-21T11:22:54;26.10;99.90
11304;DHT22;5707;49.588;12.148;2022-07-21T11:25:42;26.00;99.90
11304;DHT22;5707;49.588;12.148;2022-07-21T11:28:24;26.00;99.90
11304;DHT22;5707;49.588;12.148;2022-07-21T11:31:07;25.80;99.90
11304;DHT22;5707;49.588;12.148;2022-07-21T11:33:48;25.50;99.90
11304;DHT22;5707;49.588;12.148;2022-07-21T11:36:30;25.00;99.90
11304;DHT22;5707;49.588;12.148;2022-07-21T11:39:12;25.10;99.90
11304;DHT22;5707;49.588;12.148;2022-07-21T11:41:52;25.30;99.90
11304;DHT22;5707;49.588;12.148;2022-07-21T11:44:34;25.50;99.90
11304;DHT22;5707;49.588;12.148;2022-07-21T11:47:14;25.70;99.90
11304;DHT22;5707;49.588;12.148;2022-07-21T11:49:56;25.80;99.90
11304;DHT22;5707;49.588;12.148;2022-07-21T11:52:37;25.70;99.90
11304;DHT22;5707;49.588;12.148;2022-07-21T11:55:18;25.60;99.90
11304;DHT22;5707;49.588;12.148;2022-07-21T11:57:58;25.80;99.90
11304;DHT22;5707;49.588;12.148;2022-07-21T12:00:38;26.40;99.90
11304;DHT22;5707;49.588;12.148;2022-07-21T12:03:17;27.00;99.90
11304;DHT22;5707;49.588;12.148;2022-07-21T12:05:57;27.60;99.90
11304;DHT22;5707;49.588;12.148;2022-07-21T12:08:39;28.10;99.90
11304;DHT22;5707;49.588;12.148;2022-07-21T12:11:18;28.50;99.90
11304;DHT22;5707;49.588;12.148;2022-07-21T12:13:58;28.90;99.90
11304;DHT22;5707;49.588;12.148;2022-07-21T12:16:48;28.80;99.90
11304;DHT22;5707;49.588;12.148;2022-07-21T12:19:27;28.80;99.90
11304;DHT22;5707;49.588;12.148;2022-07-21T12:22:07;29.00;99.90
11304;DHT22;5707;49.588;12.148;2022-07-21T12:24:54;28.90;99.90
11304;DHT22;5707;49.588;12.148;2022-07-21T12:27:36;28.60;99.90
11304;DHT22;5707;49.588;12.148;2022-07-21T12:30:30;28.50;99.90
11304;DHT22;5707;49.588;12.148;2022-07-21T12:33:11;28.30;99.90
11304;DHT22;5707;49.588;12.148;2022-07-21T12:35:58;28.30;99.90
11304;DHT22;5707;49.588;12.148;2022-07-21T12:38:39;28.40;99.90
11304;DHT22;5707;49.588;12.148;2022-07-21T12:41:20;28.40;99.90
11304;DHT22;5707;49.588;12.148;2022-07-21T12:44:01;28.60;99.90
11304;DHT22;5707;49.588;12.148;2022-07-21T12:46:41;28.80;99.90
11304;DHT22;5707;49.588;12.148;2022-07-21T12:49:22;29.10;99.90
11304;DHT22;5707;49.588;12.148;2022-07-21T12:52:02;29.10;99.90
11304;DHT22;5707;49.588;12.148;2022-07-21T12:54:45;28.70;99.90
11304;DHT22;5707;49.588;12.148;2022-07-21T12:57:28;28.70;99.90
11304;DHT22;5707;49.588;12.148;2022-07-21T13:00:09;28.90;99.90
11304;DHT22;5707;49.588;12.148;2022-07-21T13:02:50;29.10;99.90
11304;DHT22;5707;49.588;12.148;2022-07-21T13:05:31;29.50;99.90
11304;DHT22;5707;49.588;12.148;2022-07-21T13:08:11;29.60;99.90
11304;DHT22;5707;49.588;12.148;2022-07-21T13:10:51;29.40;99.90
11304;DHT22;5707;49.588;12.148;2022-07-21T13:13:30;29.50;99.90
11304;DHT22;5707;49.588;12.148;2022-07-21T13:16:10;29.20;99.90
11304;DHT22;5707;49.588;12.148;2022-07-21T13:18:50;29.20;99.90
11304;DHT22;5707;49.588;12.148;2022-07-21T13:21:30;29.10;99.90
11304;DHT22;5707;49.588;12.148;2022-07-21T13:24:10;29.20;99.90
11304;DHT22;5707;49.588;12.148;2022-07-21T13:26:50;29.50;99.90
11304;DHT22;5707;49.588;12.148;2022-07-21T13:29:29;29.50;99.90
11304;DHT22;5707;49.588;12.148;2022-07-21T13:32:09;29.80;99.90
11304;DHT22;5707;49.588;12.148;2022-07-21T13:34:50;30.00;98.50
11304;DHT22;5707;49.588;12.148;2022-07-21T13:37:31;30.00;96.10
11304;DHT22;5707;49.588;12.148;2022-07-21T13:40:10;29.90;93.40
11304;DHT22;5707;49.588;12.148;2022-07-21T13:42:50;29.60;96.50
11304;DHT22;5707;49.588;12.148;2022-07-21T13:45:30;29.30;95.40
11304;DHT22;5707;49.588;12.148;2022-07-21T13:48:10;28.80;99.00
11304;DHT22;5707;49.588;12.148;2022-07-21T13:50:50;28.60;99.90
11304;DHT22;5707;49.588;12.148;2022-07-21T13:53:29;28.70;99.90
11304;DHT22;5707;49.588;12.148;2022-07-21T13:56:10;28.50;99.90
11304;DHT22;5707;49.588;12.148;2022-07-21T13:58:51;28.60;99.90
11304;DHT22;5707;49.588;12.148;2022-07-21T14:01:31;28.70;99.90
11304;DHT22;5707;49.588;12.148;2022-07-21T14:04:10;28.90;99.20
11304;DHT22;5707;49.588;12.148;2022-07-21T14:06:50;28.90;99.30
11304;DHT22;5707;49.588;12.148;2022-07-21T14:09:30;28.70;98.90
11304;DHT22;5707;49.588;12.148;2022-07-21T14:12:10;28.60;99.90
11304;DHT22;5707;49.588;12.148;2022-07-21T14:14:50;28.30;98.40
11304;DHT22;5707;49.588;12.148;2022-07-21T14:17:30;28.30;99.90
11304;DHT22;5707;49.588;12.148;2022-07-21T14:20:10;28.30;98.70
11304;DHT22;5707;49.588;12.148;2022-07-21T14:22:51;28.40;96.60
11304;DHT22;5707;49.588;12.148;2022-07-21T14:25:31;28.70;99.10
11304;DHT22;5707;49.588;12.148;2022-07-21T14:28:10;28.90;96.40
11304;DHT22;5707;49.588;12.148;2022-07-21T14:30:50;29.00;94.30
11304;DHT22;5707;49.588;12.148;2022-07-21T14:33:30;28.90;95.50
11304;DHT22;5707;49.588;12.148;2022-07-21T14:36:10;28.70;97.20
11304;DHT22;5707;49.588;12.148;2022-07-21T14:38:50;28.60;98.80
11304;DHT22;5707;49.588;12.148;2022-07-21T14:41:30;29.00;97.70
11304;DHT22;5707;49.588;12.148;2022-07-21T14:44:09;29.50;95.80
11304;DHT22;5707;49.588;12.148;2022-07-21T14:46:49;29.60;92.80
11304;DHT22;5707;49.588;12.148;2022-07-21T14:49:29;29.60;91.10
11304;DHT22;5707;49.588;12.148;2022-07-21T14:52:09;29.10;91.00
11304;DHT22;5707;49.588;12.148;2022-07-21T14:54:49;28.60;94.10
11304;DHT22;5707;49.588;12.148;2022-07-21T14:57:29;28.30;99.10
11304;DHT22;5707;49.588;12.148;2022-07-21T15:00:09;28.30;99.90
11304;DHT22;5707;49.588;12.148;2022-07-21T15:02:50;28.00;99.90
11304;DHT22;5707;49.588;12.148;2022-07-21T15:05:30;27.80;99.90
11304;DHT22;5707;49.588;12.148;2022-07-21T15:08:09;27.80;99.90
11304;DHT22;5707;49.588;12.148;2022-07-21T15:10:52;28.40;99.90
11304;DHT22;5707;49.588;12.148;2022-07-21T15:13:32;29.20;99.90
11304;DHT22;5707;49.588;12.148;2022-07-21T15:16:12;29.50;97.50
11304;DHT22;5707;49.588;12.148;2022-07-21T15:18:52;29.50;93.60
11304;DHT22;5707;49.588;12.148;2022-07-21T15:21:32;29.60;93.90
11304;DHT22;5707;49.588;12.148;2022-07-21T15:24:12;29.60;93.90
11304;DHT22;5707;49.588;12.148;2022-07-21T15:26:53;30.00;92.50
11304;DHT22;5707;49.588;12.148;2022-07-21T15:29:33;30.10;88.70
11304;DHT22;5707;49.588;12.148;2022-07-21T15:32:13;30.10;84.50
11304;DHT22;5707;49.588;12.148;2022-07-21T15:34:53;30.20;87.20
11304;DHT22;5707;49.588;12.148;2022-07-21T15:37:32;30.20;88.90
11304;DHT22;5707;49.588;12.148;2022-07-21T15:40:14;30.90;84.60
11304;DHT22;5707;49.588;12.148;2022-07-21T15:42:55;31.50;75.80
11304;DHT22;5707;49.588;12.148;2022-07-21T15:45:35;31.60;73.30
11304;DHT22;5707;49.588;12.148;2022-07-21T15:48:15;32.20;66.00
11304;DHT22;5707;49.588;12.148;2022-07-21T15:50:55;32.50;64.10
11304;DHT22;5707;49.588;12.148;2022-07-21T15:53:35;32.50;64.20
11304;DHT22;5707;49.588;12.148;2022-07-21T15:56:16;33.20;60.80
11304;DHT22;5707;49.588;12.148;2022-07-21T15:58:56;33.70;59.60
11304;DHT22;5707;49.588;12.148;2022-07-21T16:01:50;33.80;56.70
11304;DHT22;5707;49.588;12.148;2022-07-21T16:04:30;34.10;55.60
11304;DHT22;5707;49.588;12.148;2022-07-21T16:07:10;33.90;55.40
11304;DHT22;5707;49.588;12.148;2022-07-21T16:09:50;33.90;54.50
11304;DHT22;5707;49.588;12.148;2022-07-21T16:12:29;34.00;54.00
11304;DHT22;5707;49.588;12.148;2022-07-21T16:15:10;33.50;54.20
11304;DHT22;5707;49.588;12.148;2022-07-21T16:17:51;33.20;54.70
11304;DHT22;5707;49.588;12.148;2022-07-21T16:20:30;33.70;53.60
11304;DHT22;5707;49.588;12.148;2022-07-21T16:23:10;34.20;52.90
11304;DHT22;5707;49.588;12.148;2022-07-21T16:25:50;34.30;52.10
11304;DHT22;5707;49.588;12.148;2022-07-21T16:28:30;34.70;50.60
11304;DHT22;5707;49.588;12.148;2022-07-21T16:31:10;35.20;48.10
11304;DHT22;5707;49.588;12.148;2022-07-21T16:33:51;35.00;47.70
11304;DHT22;5707;49.588;12.148;2022-07-21T16:36:31;33.80;49.30
11304;DHT22;5707;49.588;12.148;2022-07-21T16:39:11;31.90;54.10
11304;DHT22;5707;49.588;12.148;2022-07-21T16:41:52;31.30;55.10
11304;DHT22;5707;49.588;12.148;2022-07-21T16:44:32;30.10;58.00
11304;DHT22;5707;49.588;12.148;2022-07-21T16:47:12;30.40;57.10
11304;DHT22;5707;49.588;12.148;2022-07-21T16:49:52;30.20;58.90
11304;DHT22;5707;49.588;12.148;2022-07-21T16:52:33;29.80;57.90
11304;DHT22;5707;49.588;12.148;2022-07-21T16:55:13;29.50;62.70